createdAt,value
2023-03-21T00:01:02.595Z,101394.00
2023-03-21T00:03:31.963Z,101367.00
2023-03-21T00:05:59.588Z,101370.00
2023-03-21T00:08:27.554Z,101380.00
2023-03-21T00:11:08.198Z,101365.00
2023-03-21T00:13:38.654Z,101368.00
2023-03-21T00:16:14.807Z,101371.00
2023-03-21T00:18:52.810Z,101376.00
2023-03-21T00:24:16.102Z,101360.00
2023-03-21T00:26:45.117Z,101346.00
2023-03-21T00:29:12.771Z,101359.00
2023-03-21T00:31:40.542Z,101358.00
2023-03-21T00:34:08.242Z,101356.00
2023-03-21T00:36:35.987Z,101358.00
2023-03-21T00:39:22.437Z,101355.00
2023-03-21T00:41:50.523Z,101330.00
2023-03-21T00:44:18.250Z,101345.00
2023-03-21T00:47:00.589Z,101349.00
2023-03-21T00:49:34.440Z,101323.00
2023-03-21T00:52:15.144Z,101329.00
2023-03-21T00:54:47.101Z,101342.00
2023-03-21T00:57:14.832Z,101329.00
2023-03-21T00:59:42.380Z,101336.00
2023-03-21T01:02:15.263Z,101326.00
2023-03-21T01:04:43.363Z,101330.00
2023-03-21T01:07:10.824Z,101327.00
2023-03-21T01:09:40.426Z,101319.00
2023-03-21T01:12:08.060Z,101319.00
2023-03-21T01:14:35.775Z,101318.00
2023-03-21T01:17:03.818Z,101304.00
2023-03-21T01:19:48.289Z,101312.00
2023-03-21T01:22:18.732Z,101306.00
2023-03-21T01:24:54.234Z,101310.00
2023-03-21T01:27:26.359Z,101303.00
2023-03-21T01:29:54.003Z,101295.00
2023-03-21T01:32:22.049Z,101281.00
2023-03-21T01:34:49.655Z,101293.00
2023-03-21T01:37:21.001Z,101291.00
2023-03-21T01:39:48.805Z,101293.00
2023-03-21T01:42:16.361Z,101291.00
2023-03-21T01:45:08.039Z,101285.00
2023-03-21T01:47:35.749Z,101276.00
2023-03-21T01:50:05.168Z,101276.00
2023-03-21T01:52:39.214Z,101281.00
2023-03-21T01:55:12.968Z,101276.00
2023-03-21T01:58:04.246Z,101282.00
2023-03-21T02:00:34.410Z,101279.00
2023-03-21T02:03:20.953Z,101268.00
2023-03-21T02:06:08.036Z,101263.00
2023-03-21T02:08:39.594Z,101270.00
2023-03-21T02:11:12.531Z,101253.00
2023-03-21T02:13:41.204Z,101259.00
2023-03-21T02:16:49.678Z,101261.00
2023-03-21T02:19:53.387Z,101257.00
2023-03-21T02:23:05.133Z,101251.00
2023-03-21T02:26:23.439Z,101252.00
2023-03-21T02:29:17.861Z,101235.00
2023-03-21T02:32:38.278Z,101243.00
2023-03-21T02:35:54.363Z,101244.00
2023-03-21T02:38:57.085Z,101236.00
2023-03-21T02:41:46.242Z,101237.00
2023-03-21T02:44:32.006Z,101228.00
2023-03-21T02:47:15.113Z,101213.00
2023-03-21T02:50:03.601Z,101214.00
2023-03-21T02:52:39.592Z,101212.00
2023-03-21T02:55:15.786Z,101215.00
2023-03-21T02:57:46.699Z,101207.00
2023-03-21T03:00:21.472Z,101210.00
2023-03-21T03:03:02.726Z,101195.00
2023-03-21T03:05:48.366Z,101210.00
2023-03-21T03:08:50.067Z,101210.00
2023-03-21T03:11:41.113Z,101204.00
2023-03-21T03:14:46.824Z,101208.00
2023-03-21T03:17:38.730Z,101197.00
2023-03-21T03:20:56.611Z,101204.00
2023-03-21T03:23:53.513Z,101204.00
2023-03-21T03:26:41.170Z,101201.00
2023-03-21T03:29:16.992Z,101194.00
2023-03-21T03:32:06.600Z,101198.00
2023-03-21T03:34:42.809Z,101201.00
2023-03-21T03:37:24.610Z,101195.00
2023-03-21T03:40:15.109Z,101193.00
2023-03-21T03:43:07.538Z,101198.00
2023-03-21T03:50:35.867Z,101190.00
2023-03-21T03:53:50.609Z,101183.00
2023-03-21T03:56:33.650Z,101192.00
2023-03-21T03:59:29.046Z,101189.00
2023-03-21T04:02:17.639Z,101188.00
2023-03-21T04:05:38.539Z,101188.00
2023-03-21T04:08:14.503Z,101189.00
2023-03-21T04:10:56.630Z,101188.00
2023-03-21T04:13:49.240Z,101179.00
2023-03-21T04:16:39.441Z,101183.00
2023-03-21T04:25:03.136Z,101175.00
2023-03-21T04:27:37.441Z,101161.00
2023-03-21T04:33:27.104Z,101160.00
2023-03-21T04:39:18.105Z,101176.00
2023-03-21T04:42:15.866Z,101170.00
2023-03-21T04:47:58.592Z,101171.00
2023-03-21T04:53:14.923Z,101167.00
2023-03-21T04:57:01.159Z,101155.00
2023-03-21T04:59:52.371Z,101156.00
2023-03-21T05:02:44.123Z,101158.00
2023-03-21T05:24:03.837Z,101145.00
2023-03-21T05:30:50.217Z,101137.00
2023-03-21T05:33:47.065Z,101150.00
2023-03-21T05:40:31.568Z,101150.00
2023-03-21T05:43:11.223Z,101141.00
2023-03-21T05:46:08.536Z,101147.00
2023-03-21T05:56:10.831Z,101132.00
2023-03-21T05:59:26.137Z,101139.00
2023-03-21T06:04:48.745Z,101119.00
2023-03-21T06:10:21.520Z,101124.00
2023-03-21T06:19:42.751Z,101110.00
2023-03-21T06:22:12.253Z,101138.00
2023-03-21T06:24:50.282Z,101127.00
2023-03-21T06:27:27.231Z,101123.00
2023-03-21T06:38:02.548Z,101134.00
2023-03-21T06:41:24.799Z,101127.00
2023-03-21T06:54:23.250Z,101109.00
2023-03-21T07:04:15.128Z,101118.00
2023-03-21T07:18:40.800Z,101118.00
2023-03-21T07:21:18.165Z,101108.00
2023-03-21T07:25:05.573Z,101119.00
2023-03-21T07:27:54.175Z,101116.00
2023-03-21T07:31:57.940Z,101125.00
2023-03-21T07:43:13.003Z,101128.00
2023-03-21T07:46:22.695Z,101136.00
2023-03-21T07:49:13.613Z,101132.00
2023-03-21T07:52:13.278Z,101128.00
2023-03-21T07:55:11.870Z,101126.00
2023-03-21T07:57:46.714Z,101138.00
2023-03-21T08:01:24.943Z,101140.00
2023-03-21T08:04:08.042Z,101141.00
2023-03-21T08:06:53.007Z,101148.00
2023-03-21T08:12:10.812Z,101140.00
2023-03-21T08:18:17.940Z,101152.00
2023-03-21T08:21:22.874Z,101149.00
2023-03-21T08:23:50.353Z,101140.00
2023-03-21T08:26:31.782Z,101138.00
2023-03-21T08:28:59.609Z,101137.00
2023-03-21T08:32:06.472Z,101128.00
2023-03-21T08:37:14.984Z,101148.00
2023-03-21T08:42:24.049Z,101138.00
2023-03-21T08:45:15.904Z,101132.00
2023-03-21T08:47:44.012Z,101128.00
2023-03-21T08:50:41.535Z,101131.00
2023-03-21T08:59:49.872Z,101124.00
2023-03-21T09:02:25.473Z,101118.00
2023-03-21T09:12:18.875Z,101125.00
2023-03-21T09:14:59.650Z,101121.00
2023-03-21T09:19:13.048Z,101112.00
2023-03-21T09:22:12.800Z,101093.00
2023-03-21T09:28:21.153Z,101087.00
2023-03-21T09:31:58.623Z,101089.00
2023-03-21T09:34:50.553Z,101081.00
2023-03-21T09:37:18.231Z,101089.00
2023-03-21T09:40:32.171Z,101090.00
2023-03-21T09:54:45.523Z,101075.00
2023-03-21T09:57:59.723Z,101068.00
2023-03-21T10:08:03.686Z,101049.00
2023-03-21T10:11:43.573Z,101063.00
2023-03-21T10:19:01.933Z,101052.00
2023-03-21T10:22:02.777Z,101031.00
2023-03-21T10:25:01.177Z,101036.00
2023-03-21T10:28:14.656Z,101034.00
2023-03-21T10:31:07.199Z,101013.00
2023-03-21T10:34:20.889Z,101030.00
2023-03-21T10:37:13.043Z,101020.00
2023-03-21T10:40:10.114Z,101010.00
2023-03-21T10:43:03.214Z,101002.00
2023-03-21T10:45:52.665Z,101000.00
2023-03-21T10:48:30.550Z,101015.00
2023-03-21T10:51:10.583Z,101001.00
2023-03-21T10:54:01.936Z,101018.00
2023-03-21T10:57:31.588Z,101014.00
2023-03-21T11:00:46.986Z,100996.00
2023-03-21T11:03:37.888Z,100984.00
2023-03-21T11:10:14.635Z,101005.00
2023-03-21T11:13:08.013Z,100994.00
2023-03-21T11:22:12.802Z,100988.00
2023-03-21T11:28:07.728Z,100996.00
2023-03-21T11:34:38.381Z,100988.00
2023-03-21T11:38:03.710Z,100982.00
2023-03-21T11:40:56.172Z,100993.00
2023-03-21T11:43:52.510Z,100989.00
2023-03-21T11:47:02.064Z,100968.00
2023-03-21T11:49:43.366Z,100982.00
2023-03-21T11:53:07.764Z,100973.00
2023-03-21T11:56:18.521Z,100978.00
2023-03-21T11:59:27.939Z,100959.00
2023-03-21T12:02:38.127Z,100979.00
2023-03-21T12:05:34.432Z,100973.00
2023-03-21T12:08:57.655Z,100974.00
2023-03-21T12:11:49.868Z,100962.00
2023-03-21T12:14:30.230Z,100954.00
2023-03-21T12:17:53.397Z,100947.00
2023-03-21T12:21:01.373Z,100949.00
2023-03-21T12:24:21.523Z,100955.00
2023-03-21T12:26:59.302Z,100941.00
2023-03-21T12:30:11.693Z,100944.00
2023-03-21T12:33:28.195Z,100937.00
2023-03-21T12:36:30.086Z,100928.00
2023-03-21T12:39:37.303Z,100925.00
2023-03-21T12:42:11.693Z,100916.00
2023-03-21T12:45:03.988Z,100902.00
2023-03-21T12:48:00.913Z,100892.00
2023-03-21T12:50:47.091Z,100891.00
2023-03-21T12:53:49.769Z,100899.00
2023-03-21T13:01:18.629Z,100891.00
2023-03-21T13:05:06.082Z,100900.00
2023-03-21T13:07:43.782Z,100879.00
2023-03-21T13:10:28.340Z,100857.00
2023-03-21T13:14:00.948Z,100870.00
2023-03-21T13:16:43.515Z,100865.00
2023-03-21T13:19:53.043Z,100873.00
2023-03-21T13:22:35.360Z,100861.00
2023-03-21T13:25:36.478Z,100866.00
2023-03-21T13:28:23.839Z,100864.00
2023-03-21T13:31:29.380Z,100872.00
2023-03-21T13:34:01.041Z,100875.00
2023-03-21T13:36:46.020Z,100873.00
2023-03-21T13:39:35.442Z,100863.00
2023-03-21T13:42:33.860Z,100872.00
2023-03-21T13:45:58.111Z,100870.00
2023-03-21T13:48:57.998Z,100864.00
2023-03-21T13:52:17.180Z,100869.00
2023-03-21T13:54:58.885Z,100870.00
2023-03-21T13:57:37.327Z,100860.00
2023-03-21T14:00:36.029Z,100845.00
2023-03-21T14:03:25.449Z,100852.00
2023-03-21T14:06:00.838Z,100848.00
2023-03-21T14:08:37.473Z,100844.00
2023-03-21T14:11:18.985Z,100857.00
2023-03-21T14:13:51.684Z,100839.00
2023-03-21T14:16:30.577Z,100830.00
2023-03-21T14:19:06.143Z,100815.00
2023-03-21T14:21:52.364Z,100818.00
2023-03-21T14:24:26.974Z,100817.00
2023-03-21T14:26:58.057Z,100812.00
2023-03-21T14:30:02.385Z,100815.00
2023-03-21T14:32:35.610Z,100813.00
2023-03-21T14:35:28.090Z,100810.00
2023-03-21T14:38:22.150Z,100817.00
2023-03-21T14:41:06.925Z,100797.00
2023-03-21T14:43:53.428Z,100801.00
2023-03-21T14:50:22.677Z,100811.00
2023-03-21T14:53:01.225Z,100803.00
2023-03-21T14:55:49.473Z,100797.00
2023-03-21T14:58:30.490Z,100801.00
2023-03-21T15:01:47.267Z,100801.00
2023-03-21T15:04:23.581Z,100787.00
2023-03-21T15:07:24.699Z,100783.00
2023-03-21T15:10:35.909Z,100805.00
2023-03-21T15:13:35.652Z,100797.00
2023-03-21T15:16:31.173Z,100782.00
2023-03-21T15:22:30.646Z,100795.00
2023-03-21T15:26:15.289Z,100800.00
2023-03-21T15:28:52.574Z,100790.00
2023-03-21T15:31:50.560Z,100797.00
2023-03-21T15:34:43.757Z,100795.00
2023-03-21T15:37:32.525Z,100798.00
2023-03-21T15:40:24.299Z,100797.00
2023-03-21T15:43:15.408Z,100799.00
2023-03-21T15:46:09.762Z,100805.00
2023-03-21T15:48:47.229Z,100791.00
2023-03-21T15:51:39.206Z,100802.00
2023-03-21T15:54:43.668Z,100800.00
2023-03-21T15:57:51.293Z,100795.00
2023-03-21T16:00:57.221Z,100799.00
2023-03-21T16:03:35.468Z,100785.00
2023-03-21T16:06:49.106Z,100788.00
2023-03-21T16:09:24.769Z,100781.00
2023-03-21T16:12:06.637Z,100787.00
2023-03-21T16:14:40.264Z,100795.00
2023-03-21T16:18:04.990Z,100795.00
2023-03-21T16:20:57.247Z,100807.00
2023-03-21T16:23:30.945Z,100802.00
2023-03-21T16:26:05.293Z,100797.00
2023-03-21T16:28:32.830Z,100794.00
2023-03-21T16:31:01.513Z,100792.00
2023-03-21T16:33:41.459Z,100801.00
2023-03-21T16:37:04.399Z,100797.00
2023-03-21T16:39:56.923Z,100800.00
2023-03-21T16:42:53.398Z,100810.00
2023-03-21T16:48:20.290Z,100809.00
2023-03-21T16:50:52.100Z,100816.00
2023-03-21T16:53:19.678Z,100815.00
2023-03-21T16:55:55.918Z,100806.00
2023-03-21T16:58:30.139Z,100801.00
2023-03-21T17:01:03.420Z,100815.00
2023-03-21T17:03:55.670Z,100816.00
2023-03-21T17:06:47.521Z,100812.00
2023-03-21T17:09:49.322Z,100813.00
2023-03-21T17:12:41.424Z,100828.00
2023-03-21T17:15:15.965Z,100809.00
2023-03-21T17:17:51.922Z,100818.00
2023-03-21T17:20:38.496Z,100811.00
2023-03-21T17:23:18.646Z,100821.00
2023-03-21T17:25:49.224Z,100816.00
2023-03-21T17:28:20.077Z,100815.00
2023-03-21T17:30:55.582Z,100814.00
2023-03-21T17:33:24.994Z,100831.00
2023-03-21T17:35:57.437Z,100824.00
2023-03-21T17:38:38.330Z,100826.00
2023-03-21T17:41:06.170Z,100828.00
2023-03-21T17:47:44.968Z,100830.00
2023-03-21T17:50:32.776Z,100837.00
2023-03-21T17:53:05.544Z,100845.00
2023-03-21T17:55:57.797Z,100839.00
2023-03-21T17:58:47.681Z,100836.00
2023-03-21T18:01:26.135Z,100846.00
2023-03-21T18:04:24.858Z,100848.00
2023-03-21T18:07:40.195Z,100837.00
2023-03-21T18:10:36.105Z,100845.00
2023-03-21T18:13:27.963Z,100857.00
2023-03-21T18:16:12.945Z,100852.00
2023-03-21T18:18:47.532Z,100833.00
2023-03-21T18:21:32.235Z,100844.00
2023-03-21T18:24:27.316Z,100844.00
2023-03-21T18:27:17.824Z,100861.00
2023-03-21T18:30:25.911Z,100861.00
2023-03-21T18:33:48.015Z,100835.00
2023-03-21T18:36:35.652Z,100846.00
2023-03-21T18:39:11.176Z,100859.00
2023-03-21T18:42:29.855Z,100847.00
2023-03-21T18:45:05.916Z,100851.00
2023-03-21T18:47:48.408Z,100854.00
2023-03-21T18:50:26.761Z,100853.00
2023-03-21T18:53:05.444Z,100836.00
2023-03-21T18:55:46.516Z,100845.00
2023-03-21T18:58:23.190Z,100832.00
2023-03-21T19:01:25.728Z,100834.00
2023-03-21T19:04:25.604Z,100820.00
2023-03-21T19:07:11.667Z,100818.00
2023-03-21T19:12:45.256Z,100809.00
2023-03-21T19:15:13.218Z,100816.00
2023-03-21T19:21:11.188Z,100820.00
2023-03-21T19:27:00.571Z,100807.00
2023-03-21T19:32:19.332Z,100812.00
2023-03-21T19:34:47.285Z,100807.00
2023-03-21T19:37:19.441Z,100792.00
2023-03-21T19:39:56.104Z,100805.00
2023-03-21T19:42:28.489Z,100800.00
2023-03-21T19:45:08.055Z,100798.00
2023-03-21T19:47:48.931Z,100803.00
2023-03-21T19:50:55.384Z,100798.00
2023-03-21T19:53:11.701Z,100814.00
2023-03-21T19:55:54.303Z,100796.00
2023-03-21T19:58:40.583Z,100811.00
2023-03-21T20:01:32.123Z,100794.00
2023-03-21T20:04:11.446Z,100799.00
2023-03-21T20:06:58.080Z,100798.00
2023-03-21T20:09:50.589Z,100789.00
2023-03-21T20:12:24.751Z,100791.00
2023-03-21T20:15:15.759Z,100790.00
2023-03-21T20:17:58.086Z,100784.00
2023-03-21T20:20:39.380Z,100801.00
2023-03-21T20:23:24.702Z,100810.00
2023-03-21T20:26:10.436Z,100793.00
2023-03-21T20:28:56.088Z,100798.00
2023-03-21T20:31:36.056Z,100803.00
2023-03-21T20:34:23.297Z,100793.00
2023-03-21T20:36:51.508Z,100799.00
2023-03-21T20:39:33.467Z,100806.00
2023-03-21T20:42:13.613Z,100805.00
2023-03-21T20:44:57.409Z,100797.00
2023-03-21T20:47:26.861Z,100809.00
2023-03-21T20:50:00.772Z,100790.00
2023-03-21T20:55:27.600Z,100786.00
2023-03-21T20:58:02.280Z,100797.00
2023-03-21T21:00:33.823Z,100798.00
2023-03-21T21:03:09.507Z,100795.00
2023-03-21T21:05:51.182Z,100775.00
2023-03-21T21:08:27.449Z,100796.00
2023-03-21T21:12:05.065Z,100792.00
2023-03-21T21:14:27.560Z,100782.00
2023-03-21T21:17:23.139Z,100778.00
2023-03-21T21:20:12.497Z,100775.00
2023-03-21T21:23:00.449Z,100794.00
2023-03-21T21:25:34.794Z,100787.00
2023-03-21T21:28:13.763Z,100797.00
2023-03-21T21:30:47.635Z,100773.00
2023-03-21T21:33:19.939Z,100792.00
2023-03-21T21:35:51.717Z,100795.00
2023-03-21T21:38:30.720Z,100790.00
2023-03-21T21:41:22.626Z,100787.00
2023-03-21T21:43:59.869Z,100790.00
2023-03-21T21:46:41.237Z,100775.00
2023-03-21T21:49:15.076Z,100772.00
2023-03-21T21:54:36.227Z,100780.00
2023-03-21T21:57:04.523Z,100776.00
2023-03-21T21:59:32.462Z,100773.00
2023-03-21T22:02:07.894Z,100771.00
2023-03-21T22:04:43.752Z,100769.00
2023-03-21T22:07:20.255Z,100774.00
2023-03-21T22:12:43.289Z,100779.00
2023-03-21T22:15:28.498Z,100775.00
2023-03-21T22:17:56.024Z,100783.00
2023-03-21T22:20:59.611Z,100774.00
2023-03-21T22:23:34.481Z,100763.00
2023-03-21T22:26:09.607Z,100769.00
2023-03-21T22:28:44.548Z,100753.00
2023-03-21T22:31:18.528Z,100769.00
2023-03-21T22:36:57.476Z,100752.00
2023-03-21T22:39:26.629Z,100772.00
2023-03-21T22:42:20.991Z,100769.00
2023-03-21T22:44:57.652Z,100753.00
2023-03-21T22:47:24.999Z,100763.00
2023-03-21T22:49:58.565Z,100766.00
2023-03-21T22:52:35.965Z,100772.00
2023-03-21T22:55:21.257Z,100772.00
2023-03-21T22:57:54.272Z,100762.00
2023-03-21T23:00:21.733Z,100754.00
2023-03-21T23:03:00.102Z,100759.00
2023-03-21T23:05:40.318Z,100749.00
2023-03-21T23:08:11.015Z,100754.00
2023-03-21T23:10:53.355Z,100740.00
2023-03-21T23:13:37.156Z,100747.00
2023-03-21T23:16:07.530Z,100746.00
2023-03-21T23:18:37.585Z,100749.00
2023-03-21T23:21:17.639Z,100741.00
2023-03-21T23:23:51.340Z,100735.00
2023-03-21T23:26:38.429Z,100744.00
2023-03-21T23:29:12.430Z,100730.00
2023-03-21T23:31:46.420Z,100728.00
2023-03-21T23:34:21.279Z,100739.00
2023-03-21T23:36:54.114Z,100732.00
2023-03-21T23:40:01.492Z,100743.00
2023-03-21T23:42:38.391Z,100727.00
2023-03-21T23:45:34.497Z,100721.00
2023-03-21T23:48:01.946Z,100735.00
2023-03-21T23:50:38.551Z,100729.00
2023-03-21T23:53:08.705Z,100727.00
2023-03-21T23:55:41.228Z,100710.00
2023-03-21T23:58:11.534Z,100719.00
